createdAt,value
2022-11-16T00:02:13.297Z,15.63
2022-11-16T00:04:39.741Z,17.48
2022-11-16T00:07:06.485Z,15.93
2022-11-16T00:09:33.539Z,18.65
2022-11-16T00:12:03.305Z,19.13
2022-11-16T00:14:34.887Z,17.92
2022-11-16T00:17:04.421Z,16.15
2022-11-16T00:19:31.046Z,16.65
2022-11-16T00:21:57.661Z,18.65
2022-11-16T00:24:24.393Z,16.35
2022-11-16T00:26:53.906Z,15.25
2022-11-16T00:29:23.100Z,16.20
2022-11-16T00:31:50.340Z,17.52
2022-11-16T00:34:17.292Z,15.65
2022-11-16T00:36:44.611Z,18.35
2022-11-16T00:39:13.006Z,16.17
2022-11-16T00:41:40.249Z,16.33
2022-11-16T00:44:07.146Z,16.88
2022-11-16T00:46:33.887Z,17.48
2022-11-16T00:49:00.309Z,15.82
2022-11-16T00:51:26.953Z,17.40
2022-11-16T00:53:53.337Z,18.50
2022-11-16T00:56:19.746Z,16.67
2022-11-16T00:58:46.118Z,15.77
2022-11-16T01:01:12.750Z,15.75
2022-11-16T01:03:39.790Z,15.73
2022-11-16T01:06:09.243Z,17.50
2022-11-16T01:08:37.909Z,17.65
2022-11-16T01:11:23.949Z,17.30
2022-11-16T01:13:50.724Z,19.38
2022-11-16T01:16:19.030Z,16.67
2022-11-16T01:18:50.917Z,15.18
2022-11-16T01:21:17.993Z,18.08
2022-11-16T01:23:44.429Z,15.07
2022-11-16T01:26:10.831Z,15.88
2022-11-16T01:28:37.423Z,17.75
2022-11-16T01:31:04.267Z,17.27
2022-11-16T01:33:30.835Z,15.93
2022-11-16T01:35:57.244Z,17.25
2022-11-16T01:38:28.418Z,15.73
2022-11-16T01:40:56.084Z,18.73
2022-11-16T01:43:25.587Z,17.67
2022-11-16T01:45:52.333Z,18.77
2022-11-16T01:48:27.611Z,16.65
2022-11-16T01:50:56.290Z,15.57
2022-11-16T01:53:23.946Z,17.50
2022-11-16T01:55:50.817Z,17.85
2022-11-16T01:58:24.197Z,16.60
2022-11-16T02:00:50.673Z,16.05
2022-11-16T02:03:18.945Z,15.98
2022-11-16T02:06:30.318Z,15.27
2022-11-16T02:09:34.159Z,16.52
2022-11-16T02:12:12.818Z,14.15
2022-11-16T02:14:48.188Z,16.95
2022-11-16T02:17:32.854Z,16.92
2022-11-16T02:20:24.189Z,14.63
2022-11-16T02:23:02.725Z,13.43
2022-11-16T02:25:53.783Z,13.45
2022-11-16T02:28:43.447Z,14.43
2022-11-16T02:31:16.190Z,15.15
2022-11-16T02:33:44.581Z,16.02
2022-11-16T02:36:16.954Z,15.48
2022-11-16T02:38:51.736Z,12.88
2022-11-16T02:41:21.615Z,13.70
2022-11-16T02:43:56.665Z,13.70
2022-11-16T02:46:29.025Z,17.85
2022-11-16T02:48:59.993Z,12.95
2022-11-16T02:51:28.977Z,16.88
2022-11-16T02:54:04.146Z,15.10
2022-11-16T02:56:30.769Z,13.23
2022-11-16T02:58:59.484Z,16.13
2022-11-16T03:01:35.601Z,13.07
2022-11-16T03:04:11.553Z,14.43
2022-11-16T03:06:41.519Z,14.75
2022-11-16T03:09:18.518Z,14.50
2022-11-16T03:14:34.220Z,12.00
2022-11-16T03:17:02.426Z,14.43
2022-11-16T03:19:57.611Z,15.27
2022-11-16T03:22:30.484Z,12.50
2022-11-16T03:24:57.509Z,13.10
2022-11-16T03:27:49.827Z,12.50
2022-11-16T03:30:23.529Z,12.23
2022-11-16T03:33:21.829Z,12.57
2022-11-16T03:35:55.458Z,13.32
2022-11-16T03:38:24.663Z,12.38
2022-11-16T03:40:52.033Z,13.20
2022-11-16T03:43:20.720Z,13.00
2022-11-16T03:45:47.484Z,13.02
2022-11-16T03:48:13.969Z,16.80
2022-11-16T03:50:41.003Z,14.35
2022-11-16T03:53:07.414Z,13.50
2022-11-16T03:55:33.842Z,12.73
2022-11-16T03:58:01.370Z,13.85
2022-11-16T04:00:27.761Z,15.52
2022-11-16T04:02:54.246Z,12.75
2022-11-16T04:05:39.186Z,15.13
2022-11-16T04:08:24.623Z,15.10
2022-11-16T04:11:09.791Z,13.82
2022-11-16T04:13:54.700Z,13.70
2022-11-16T04:16:39.524Z,14.43
2022-11-16T04:19:24.402Z,13.50
2022-11-16T04:22:12.742Z,11.93
2022-11-16T04:24:41.805Z,11.75
2022-11-16T04:27:31.873Z,12.13
2022-11-16T04:30:01.156Z,11.77
2022-11-16T04:32:46.600Z,12.20
2022-11-16T04:35:31.856Z,11.35
2022-11-16T04:37:59.412Z,13.07
2022-11-16T04:40:30.211Z,10.60
2022-11-16T04:42:58.793Z,9.52
2022-11-16T04:45:44.754Z,9.88
2022-11-16T04:48:12.543Z,10.55
2022-11-16T04:50:39.978Z,9.13
2022-11-16T04:53:07.552Z,9.18
2022-11-16T04:55:34.354Z,11.13
2022-11-16T04:58:01.420Z,11.52
2022-11-16T05:00:28.659Z,11.20
2022-11-16T05:03:00.788Z,9.65
2022-11-16T05:05:27.851Z,8.55
2022-11-16T05:07:54.260Z,11.57
2022-11-16T05:10:20.661Z,10.75
2022-11-16T05:12:47.058Z,12.20
2022-11-16T05:15:13.491Z,11.77
2022-11-16T05:17:39.961Z,12.00
2022-11-16T05:20:25.414Z,10.77
2022-11-16T05:23:00.709Z,12.13
2022-11-16T05:25:29.311Z,12.07
2022-11-16T05:27:57.705Z,10.23
2022-11-16T05:30:24.178Z,13.63
2022-11-16T05:32:50.696Z,10.30
2022-11-16T05:35:17.146Z,10.98
2022-11-16T05:37:44.539Z,12.25
2022-11-16T05:40:11.777Z,11.20
2022-11-16T05:42:38.254Z,11.43
2022-11-16T05:45:05.121Z,13.00
2022-11-16T05:47:33.370Z,11.75
2022-11-16T05:49:59.773Z,13.15
2022-11-16T05:52:26.172Z,11.93
2022-11-16T05:54:52.561Z,11.02
2022-11-16T05:57:18.989Z,11.55
2022-11-16T05:59:45.456Z,14.77
2022-11-16T06:02:14.555Z,13.05
2022-11-16T06:04:40.962Z,15.75
2022-11-16T06:07:07.366Z,14.98
2022-11-16T06:09:33.785Z,15.50
2022-11-16T06:12:00.172Z,15.73
2022-11-16T06:14:26.599Z,14.75
2022-11-16T06:16:53.134Z,18.48
2022-11-16T06:19:19.633Z,16.23
2022-11-16T06:21:46.048Z,16.70
2022-11-16T06:24:12.429Z,20.95
2022-11-16T06:26:38.843Z,17.45
2022-11-16T06:29:05.353Z,18.58
2022-11-16T06:31:31.805Z,19.65
2022-11-16T06:33:58.214Z,16.35
2022-11-16T06:36:25.609Z,18.33
2022-11-16T06:38:52.091Z,17.27
2022-11-16T06:41:18.626Z,18.60
2022-11-16T06:43:45.152Z,20.00
2022-11-16T06:46:11.677Z,20.85
2022-11-16T06:48:38.172Z,19.77
2022-11-16T06:51:04.696Z,18.90
2022-11-16T06:53:31.117Z,20.00
2022-11-16T06:56:05.236Z,21.20
2022-11-16T06:58:32.768Z,18.25
2022-11-16T07:01:09.804Z,20.63
2022-11-16T07:03:36.404Z,20.85
2022-11-16T07:06:10.525Z,17.10
2022-11-16T07:08:37.303Z,17.40
2022-11-16T07:11:05.387Z,17.33
2022-11-16T07:13:33.398Z,15.10
2022-11-16T07:16:06.436Z,17.08
2022-11-16T07:18:35.084Z,17.70
2022-11-16T07:21:13.333Z,17.67
2022-11-16T07:23:40.014Z,16.70
2022-11-16T07:26:08.169Z,18.65
2022-11-16T07:28:34.810Z,13.60
2022-11-16T07:31:03.261Z,15.88
2022-11-16T07:33:29.749Z,18.90
2022-11-16T07:36:02.179Z,13.65
2022-11-16T07:38:29.228Z,12.82
2022-11-16T07:40:59.976Z,12.45
2022-11-16T07:43:27.753Z,12.93
2022-11-16T07:45:55.739Z,11.82
2022-11-16T07:48:24.853Z,11.90
2022-11-16T07:50:51.237Z,12.85
2022-11-16T07:53:23.445Z,11.63
2022-11-16T07:55:53.811Z,9.35
2022-11-16T07:58:21.396Z,13.38
2022-11-16T08:00:48.134Z,10.20
2022-11-16T08:03:16.496Z,11.05
2022-11-16T08:05:46.949Z,10.50
2022-11-16T08:08:13.589Z,9.75
2022-11-16T08:10:39.937Z,9.05
2022-11-16T08:13:06.351Z,9.88
2022-11-16T08:15:32.754Z,13.32
2022-11-16T08:17:59.151Z,12.85
2022-11-16T08:20:25.637Z,10.48
2022-11-16T08:22:51.988Z,8.95
2022-11-16T08:25:18.514Z,7.85
2022-11-16T08:27:45.682Z,9.05
2022-11-16T08:30:12.998Z,11.10
2022-11-16T08:32:41.142Z,9.02
2022-11-16T08:35:07.904Z,7.50
2022-11-16T08:37:34.485Z,6.95
2022-11-16T08:40:02.401Z,9.20
2022-11-16T08:42:28.917Z,9.18
2022-11-16T08:44:55.268Z,10.00
2022-11-16T08:47:22.620Z,12.02
2022-11-16T08:49:49.783Z,10.82
2022-11-16T08:52:16.364Z,14.18
2022-11-16T08:54:42.705Z,10.07
2022-11-16T08:57:09.130Z,11.60
2022-11-16T08:59:35.516Z,9.35
2022-11-16T09:02:02.016Z,9.15
2022-11-16T09:04:32.732Z,9.00
2022-11-16T09:07:02.199Z,9.32
2022-11-16T09:09:28.576Z,11.40
2022-11-16T09:11:55.587Z,11.30
2022-11-16T09:14:21.971Z,15.57
2022-11-16T09:16:49.354Z,13.82
2022-11-16T09:19:15.781Z,8.75
2022-11-16T09:21:42.547Z,10.15
2022-11-16T09:24:09.180Z,15.68
2022-11-16T09:26:35.565Z,13.60
2022-11-16T09:29:04.274Z,12.25
2022-11-16T09:31:34.605Z,8.07
2022-11-16T09:34:00.970Z,8.38
2022-11-16T09:36:28.782Z,9.50
2022-11-16T09:39:29.407Z,9.40
2022-11-16T09:42:00.837Z,10.27
2022-11-16T09:44:42.348Z,8.80
2022-11-16T09:47:19.441Z,10.63
2022-11-16T09:49:52.229Z,9.57
2022-11-16T09:52:40.471Z,10.38
2022-11-16T09:55:36.733Z,12.95
2022-11-16T09:58:12.753Z,7.97
2022-11-16T10:00:44.551Z,6.85
2022-11-16T10:03:15.116Z,11.15
2022-11-16T10:05:50.422Z,9.98
2022-11-16T10:08:33.624Z,10.52
2022-11-16T10:11:23.599Z,8.30
2022-11-16T10:14:04.395Z,7.30
2022-11-16T10:16:48.519Z,12.63
2022-11-16T10:19:41.561Z,10.07
2022-11-16T10:22:32.703Z,8.65
2022-11-16T10:25:07.135Z,6.47
2022-11-16T10:28:15.605Z,7.70
2022-11-16T10:30:59.688Z,8.60
2022-11-16T10:33:35.449Z,5.97
2022-11-16T10:36:13.988Z,9.88
2022-11-16T10:38:42.300Z,6.80
2022-11-16T10:41:21.019Z,12.77
2022-11-16T10:43:48.720Z,7.65
2022-11-16T10:46:36.244Z,8.40
2022-11-16T10:49:16.133Z,9.88
2022-11-16T10:51:45.842Z,11.27
2022-11-16T10:54:16.202Z,10.35
2022-11-16T10:56:46.658Z,9.73
2022-11-16T10:59:15.653Z,7.78
2022-11-16T11:01:58.971Z,10.20
2022-11-16T11:04:29.887Z,10.85
2022-11-16T11:07:02.089Z,9.77
2022-11-16T11:09:38.185Z,9.55
2022-11-16T11:12:32.998Z,10.68
2022-11-16T11:15:11.220Z,11.38
2022-11-16T11:17:47.283Z,9.00
2022-11-16T11:20:16.625Z,5.20
2022-11-16T11:22:52.320Z,6.97
2022-11-16T11:25:25.932Z,11.48
2022-11-16T11:28:05.307Z,10.63
2022-11-16T11:30:32.317Z,8.63
2022-11-16T11:32:59.259Z,10.70
2022-11-16T11:35:30.076Z,9.90
2022-11-16T11:38:03.376Z,7.97
2022-11-16T11:40:33.694Z,8.32
2022-11-16T11:43:05.367Z,6.65
2022-11-16T11:45:46.675Z,8.90
2022-11-16T11:48:47.965Z,6.18
2022-11-16T11:51:25.454Z,7.95
2022-11-16T11:53:53.957Z,9.63
2022-11-16T11:56:20.612Z,9.13
2022-11-16T11:58:48.345Z,8.82
2022-11-16T12:01:49.223Z,9.13
2022-11-16T12:04:50.221Z,10.68
2022-11-16T12:07:29.441Z,8.05
2022-11-16T12:10:14.643Z,6.03
2022-11-16T12:13:19.020Z,6.80
2022-11-16T12:16:04.197Z,6.32
2022-11-16T12:18:49.532Z,11.82
2022-11-16T12:21:49.837Z,7.57
2022-11-16T12:24:34.541Z,5.82
2022-11-16T12:27:19.968Z,9.00
2022-11-16T12:30:11.379Z,7.70
2022-11-16T12:32:51.867Z,6.53
2022-11-16T12:35:48.755Z,9.75
2022-11-16T12:38:34.918Z,8.43
2022-11-16T12:41:19.279Z,8.32
2022-11-16T12:44:08.921Z,9.10
2022-11-16T12:46:47.136Z,8.57
2022-11-16T12:50:01.208Z,8.88
2022-11-16T12:52:54.385Z,12.25
2022-11-16T12:55:30.031Z,8.30
2022-11-16T12:58:07.265Z,7.00
2022-11-16T13:00:50.080Z,9.00
2022-11-16T13:03:23.507Z,7.55
2022-11-16T13:05:56.842Z,7.18
2022-11-16T13:08:40.050Z,6.30
2022-11-16T13:13:53.849Z,5.43
2022-11-16T13:16:21.939Z,8.57
2022-11-16T13:18:48.513Z,6.25
2022-11-16T13:21:25.552Z,7.28
2022-11-16T13:24:22.939Z,5.07
2022-11-16T13:27:10.823Z,8.52
2022-11-16T13:29:46.470Z,7.15
2022-11-16T13:32:28.371Z,9.02
2022-11-16T13:34:55.335Z,6.82
2022-11-16T13:37:37.428Z,5.53
2022-11-16T13:40:06.732Z,10.65
2022-11-16T13:42:42.945Z,6.45
2022-11-16T13:45:17.674Z,6.03
2022-11-16T13:47:55.954Z,10.27
2022-11-16T13:50:33.024Z,6.82
2022-11-16T13:56:15.970Z,6.95
2022-11-16T13:58:55.534Z,5.00
2022-11-16T14:01:23.775Z,16.58
2022-11-16T14:03:52.207Z,5.88
2022-11-16T14:06:24.753Z,7.55
2022-11-16T14:08:53.087Z,3.25
2022-11-16T14:11:40.698Z,6.25
2022-11-16T14:14:48.599Z,5.13
2022-11-16T14:18:00.872Z,6.85
2022-11-16T14:20:37.088Z,5.75
2022-11-16T14:23:11.826Z,6.82
2022-11-16T14:25:47.270Z,8.30
2022-11-16T14:28:19.654Z,5.57
2022-11-16T14:31:07.751Z,4.50
2022-11-16T14:33:37.225Z,6.47
2022-11-16T14:36:07.559Z,5.68
2022-11-16T14:38:36.664Z,5.72
2022-11-16T14:41:05.902Z,7.65
2022-11-16T14:43:42.035Z,8.02
2022-11-16T14:46:27.977Z,8.55
2022-11-16T14:48:57.152Z,8.93
2022-11-16T14:51:34.912Z,7.35
2022-11-16T14:54:25.824Z,5.82
2022-11-16T14:57:00.467Z,6.00
2022-11-16T14:59:28.046Z,6.43
2022-11-16T15:01:54.667Z,6.25
2022-11-16T15:04:24.169Z,7.90
2022-11-16T15:06:56.012Z,7.38
2022-11-16T15:09:28.215Z,6.47
2022-11-16T15:12:13.832Z,5.38
2022-11-16T15:14:46.364Z,6.60
2022-11-16T15:17:18.267Z,5.95
2022-11-16T15:19:54.459Z,6.50
2022-11-16T15:22:23.922Z,8.30
2022-11-16T15:24:58.666Z,7.35
2022-11-16T15:27:34.564Z,12.13
2022-11-16T15:30:03.642Z,8.93
2022-11-16T15:32:31.340Z,6.72
2022-11-16T15:35:02.463Z,5.55
2022-11-16T15:37:31.686Z,8.50
2022-11-16T15:39:59.901Z,7.78
2022-11-16T15:42:28.589Z,5.00
2022-11-16T15:44:55.865Z,7.20
2022-11-16T15:47:23.522Z,6.82
2022-11-16T15:49:52.820Z,7.75
2022-11-16T15:52:42.661Z,6.28
2022-11-16T15:55:28.795Z,7.53
2022-11-16T15:58:26.357Z,9.10
2022-11-16T16:00:54.600Z,7.97
2022-11-16T16:03:25.099Z,7.32
2022-11-16T16:05:52.316Z,10.95
2022-11-16T16:08:38.561Z,8.60
2022-11-16T16:11:20.338Z,11.60
2022-11-16T16:14:24.406Z,8.05
2022-11-16T16:16:53.463Z,7.95
2022-11-16T16:19:44.671Z,10.25
2022-11-16T16:22:28.289Z,10.38
2022-11-16T16:24:55.264Z,13.20
2022-11-16T16:27:24.377Z,7.22
2022-11-16T16:29:52.823Z,9.02
2022-11-16T16:32:28.141Z,8.95
2022-11-16T16:34:56.970Z,9.55
2022-11-16T16:37:26.265Z,11.40
2022-11-16T16:39:52.776Z,9.65
2022-11-16T16:42:19.294Z,12.02
2022-11-16T16:44:47.071Z,11.00
2022-11-16T16:47:14.972Z,8.25
2022-11-16T16:49:41.863Z,10.05
2022-11-16T16:52:11.929Z,11.07
2022-11-16T16:54:38.534Z,9.73
2022-11-16T16:57:04.935Z,8.43
2022-11-16T16:59:31.341Z,11.90
2022-11-16T17:01:58.464Z,6.53
2022-11-16T17:04:25.363Z,10.48
2022-11-16T17:06:52.588Z,10.38
2022-11-16T17:09:19.074Z,8.20
2022-11-16T17:11:46.818Z,7.20
2022-11-16T17:14:13.209Z,9.88
2022-11-16T17:16:39.609Z,11.50
2022-11-16T17:19:05.987Z,11.10
2022-11-16T17:21:32.445Z,9.52
2022-11-16T17:23:58.959Z,15.18
2022-11-16T17:26:29.153Z,11.18
2022-11-16T17:28:57.015Z,12.38
2022-11-16T17:31:24.205Z,9.82
2022-11-16T17:33:51.211Z,13.52
2022-11-16T17:36:17.854Z,8.90
2022-11-16T17:38:44.408Z,12.82
2022-11-16T17:41:14.914Z,12.10
2022-11-16T17:43:42.841Z,12.55
2022-11-16T17:46:11.650Z,11.65
2022-11-16T17:48:39.595Z,10.13
2022-11-16T17:51:06.515Z,16.42
2022-11-16T17:53:35.442Z,10.60
2022-11-16T17:56:03.524Z,11.93
2022-11-16T17:58:30.929Z,14.07
2022-11-16T18:00:57.504Z,17.25
2022-11-16T18:03:29.570Z,13.25
2022-11-16T18:06:06.560Z,20.55
2022-11-16T18:08:34.331Z,20.20
2022-11-16T18:11:09.726Z,15.10
2022-11-16T18:13:37.165Z,14.18
2022-11-16T18:16:11.064Z,42.65
2022-11-16T18:18:38.468Z,32.80
2022-11-16T18:21:06.500Z,15.13
2022-11-16T18:23:34.351Z,21.20
2022-11-16T18:26:03.351Z,14.30
2022-11-16T18:28:30.231Z,19.95
2022-11-16T18:31:08.638Z,20.65
2022-11-16T18:33:37.199Z,12.60
2022-11-16T18:36:05.007Z,19.20
2022-11-16T18:38:31.532Z,13.95
2022-11-16T18:41:12.997Z,15.98
2022-11-16T18:43:40.893Z,19.70
2022-11-16T18:46:07.563Z,23.48
2022-11-16T18:48:34.214Z,18.02
2022-11-16T18:51:03.861Z,11.25
2022-11-16T18:53:31.776Z,11.25
2022-11-16T18:55:58.621Z,15.23
2022-11-16T18:58:49.332Z,14.77
2022-11-16T19:01:15.263Z,24.90
2022-11-16T19:03:41.726Z,17.85
2022-11-16T19:06:09.746Z,19.85
2022-11-16T19:08:37.918Z,12.43
2022-11-16T19:11:05.776Z,15.85
2022-11-16T19:13:32.947Z,11.80
2022-11-16T19:15:59.841Z,12.07
2022-11-16T19:18:27.298Z,14.07
2022-11-16T19:21:21.889Z,11.13
2022-11-16T19:23:53.046Z,11.32
2022-11-16T19:26:21.495Z,8.43
2022-11-16T19:28:49.501Z,12.80
2022-11-16T19:31:21.042Z,15.05
2022-11-16T19:33:47.556Z,16.27
2022-11-16T19:36:16.458Z,10.68
2022-11-16T19:38:44.413Z,10.60
2022-11-16T19:41:12.719Z,17.80
2022-11-16T19:43:39.389Z,11.40
2022-11-16T19:46:17.913Z,18.05
2022-11-16T19:48:45.804Z,9.98
2022-11-16T19:51:16.053Z,10.45
2022-11-16T19:53:42.529Z,13.48
2022-11-16T19:56:11.633Z,12.32
2022-11-16T19:58:38.719Z,14.63
2022-11-16T20:01:10.852Z,13.52
2022-11-16T20:03:38.457Z,8.55
2022-11-16T20:06:22.631Z,12.95
2022-11-16T20:08:53.851Z,9.95
2022-11-16T20:11:21.348Z,12.82
2022-11-16T20:13:48.847Z,10.43
2022-11-16T20:16:16.540Z,10.25
2022-11-16T20:18:43.893Z,17.23
2022-11-16T20:21:19.152Z,13.45
2022-11-16T20:23:45.611Z,11.07
2022-11-16T20:26:13.537Z,11.60
2022-11-16T20:28:42.315Z,12.45
2022-11-16T20:31:20.442Z,13.18
2022-11-16T20:33:52.061Z,11.55
2022-11-16T20:36:19.364Z,13.00
2022-11-16T20:38:45.723Z,12.80
2022-11-16T20:41:17.560Z,15.80
2022-11-16T20:43:45.001Z,18.38
2022-11-16T20:46:16.784Z,10.93
2022-11-16T20:48:43.991Z,25.63
2022-11-16T20:51:13.150Z,18.33
2022-11-16T20:53:39.706Z,8.57
2022-11-16T20:56:07.733Z,9.40
2022-11-16T20:58:34.941Z,7.28
2022-11-16T21:01:03.019Z,14.18
2022-11-16T21:03:29.464Z,11.13
2022-11-16T21:05:55.994Z,12.13
2022-11-16T21:08:24.411Z,8.60
2022-11-16T21:10:50.946Z,7.78
2022-11-16T21:13:37.703Z,6.13
2022-11-16T21:16:06.743Z,5.97
2022-11-16T21:18:33.820Z,8.02
2022-11-16T21:21:04.909Z,6.97
2022-11-16T21:23:33.370Z,5.90
2022-11-16T21:26:08.223Z,6.53
2022-11-16T21:28:34.740Z,7.22
2022-11-16T21:31:03.306Z,8.50
2022-11-16T21:33:30.178Z,7.40
2022-11-16T21:35:56.646Z,8.88
2022-11-16T21:38:25.547Z,8.00
2022-11-16T21:40:51.935Z,7.35
2022-11-16T21:43:18.345Z,7.10
2022-11-16T21:45:46.586Z,10.75
2022-11-16T21:48:13.556Z,8.20
2022-11-16T21:50:40.010Z,7.18
2022-11-16T21:53:07.206Z,7.68
2022-11-16T21:55:34.372Z,9.38
2022-11-16T21:58:03.387Z,6.88
2022-11-16T22:00:30.323Z,9.20
2022-11-16T22:02:56.923Z,8.80
2022-11-16T22:05:41.964Z,9.60
2022-11-16T22:08:11.586Z,10.63
2022-11-16T22:10:38.115Z,9.63
2022-11-16T22:13:06.738Z,6.90
2022-11-16T22:15:33.298Z,8.60
2022-11-16T22:18:02.468Z,8.77
2022-11-16T22:20:31.707Z,6.65
2022-11-16T22:22:58.157Z,9.68
2022-11-16T22:25:27.715Z,7.80
2022-11-16T22:30:40.813Z,7.07
2022-11-16T22:33:07.185Z,9.40
2022-11-16T22:35:33.547Z,10.25
2022-11-16T22:38:02.276Z,11.02
2022-11-16T22:40:28.645Z,8.32
2022-11-16T22:42:59.097Z,8.80
2022-11-16T22:45:26.001Z,8.55
2022-11-16T22:47:54.899Z,11.48
2022-11-16T22:50:23.328Z,7.35
2022-11-16T22:52:49.765Z,11.43
2022-11-16T22:55:16.144Z,7.90
2022-11-16T22:57:42.570Z,10.20
2022-11-16T23:00:09.970Z,8.30
2022-11-16T23:02:36.347Z,6.05
2022-11-16T23:05:02.730Z,8.25
2022-11-16T23:07:29.138Z,6.65
2022-11-16T23:09:55.528Z,10.15
2022-11-16T23:12:40.183Z,7.88
2022-11-16T23:15:30.559Z,9.35
2022-11-16T23:17:57.218Z,7.97
2022-11-16T23:20:42.414Z,9.80
2022-11-16T23:23:38.436Z,10.80
2022-11-16T23:26:41.649Z,8.07
2022-11-16T23:29:10.339Z,10.10
2022-11-16T23:31:37.870Z,8.75
2022-11-16T23:34:04.713Z,8.45
2022-11-16T23:36:31.179Z,10.48
2022-11-16T23:38:57.586Z,11.35
2022-11-16T23:41:42.663Z,10.73
2022-11-16T23:44:09.079Z,8.15
2022-11-16T23:46:35.468Z,8.85
2022-11-16T23:49:02.122Z,7.03
2022-11-16T23:51:28.516Z,9.10
2022-11-16T23:53:55.747Z,8.82
2022-11-16T23:56:22.649Z,6.68
2022-11-16T23:58:49.294Z,7.80
